Time;durP1;ratioP1;P1;durP2;ratioP2;P2;SDS_P1;SDS_P2;PMS_P1;PMS_P2;Temp;Humidity;BMP_temperature;BMP_pressure;BME280_temperature;BME280_humidity;BME280_pressure;Samples;Min_cycle;Max_cycle;Signal;HPM_P1;HPM_P2
2023/03/25 00:01:55;;;;;;;;;1.00;0.00;;;;;11.78;100.00;100663.34;5014563;28;50646;-77
2023/03/25 00:04:20;;;;;;;;;0.67;0.00;;;;;11.74;100.00;100666.84;5011550;28;55387;-76
2023/03/25 00:06:46;;;;;;;;;0.67;0.00;;;;;11.72;100.00;100655.41;5013435;28;45744;-76
2023/03/25 00:09:11;;;;;;;;;0.00;0.00;;;;;11.71;100.00;100666.84;5010268;28;45752;-76
2023/03/25 00:11:37;;;;;;;;;1.00;1.00;;;;;11.69;100.00;100668.59;5011702;28;45530;-76
2023/03/25 00:14:03;;;;;;;;;0.00;0.00;;;;;11.71;100.00;100664.19;5015015;28;62981;-76
2023/03/25 00:16:28;;;;;;;;;0.00;0.00;;;;;11.69;100.00;100660.66;5014453;28;46796;-75
2023/03/25 00:18:54;;;;;;;;;1.00;0.00;;;;;11.66;100.00;100669.44;5015700;28;45498;-76
2023/03/25 00:21:20;;;;;;;;;0.00;0.00;;;;;11.67;100.00;100660.66;4995980;28;45624;-76
2023/03/25 00:23:45;;;;;;;;;1.33;0.00;;;;;11.67;100.00;100663.31;5013031;28;45445;-77
2023/03/25 00:26:10;;;;;;;;;1.00;0.00;;;;;11.68;100.00;100669.47;4991650;28;47329;-76
2023/03/25 00:28:37;;;;;;;;;1.00;0.00;;;;;11.65;100.00;100662.41;5009808;28;55757;-76
2023/03/25 00:31:06;;;;;;;;;0.33;0.00;;;;;11.68;100.00;100675.66;5120145;22;45367;-76
2023/03/25 00:33:32;;;;;;;;;3.00;0.00;;;;;11.67;100.00;100676.53;5030567;28;45566;-76
2023/03/25 00:35:58;;;;;;;;;2.67;0.00;;;;;11.68;100.00;100670.38;5034634;28;47333;-76
2023/03/25 00:38:34;;;;;;;;;3.00;0.00;;;;;11.68;100.00;100669.47;5035255;28;45500;-76
2023/03/25 00:41:13;;;;;;;;;0.67;0.33;;;;;11.67;100.00;100657.16;5032905;28;45787;-76
2023/03/25 00:43:39;;;;;;;;;3.33;0.00;;;;;11.66;100.00;100674.75;5033990;28;45465;-76
2023/03/25 00:46:04;;;;;;;;;0.33;0.00;;;;;11.65;100.00;100670.34;5034006;28;46289;-76
2023/03/25 00:48:30;;;;;;;;;3.67;0.00;;;;;11.63;100.00;100672.09;5030852;28;45370;-76
2023/03/25 00:50:55;;;;;;;;;3.00;0.00;;;;;11.61;100.00;100681.81;5005373;28;45353;-76
2023/03/25 00:53:21;;;;;;;;;0.00;0.00;;;;;11.61;100.00;100668.59;5029510;28;62724;-77
2023/03/25 00:55:46;;;;;;;;;0.00;0.00;;;;;11.63;100.00;100673.88;5019969;28;46465;-76
2023/03/25 00:58:11;;;;;;;;;0.00;0.00;;;;;11.63;100.00;100665.94;5037468;28;64623;-76
2023/03/25 01:00:37;;;;;;;;;0.00;0.00;;;;;11.63;100.00;100669.47;5032244;28;46076;-76
2023/03/25 01:03:02;;;;;;;;;0.33;0.33;;;;;11.61;100.00;100679.16;5036088;28;61569;-75
2023/03/25 01:05:28;;;;;;;;;0.00;0.00;;;;;11.61;100.00;100675.59;5037566;28;46129;-77
2023/03/25 01:07:54;;;;;;;;;2.67;0.00;;;;;11.62;100.00;100674.75;5034425;28;45423;-77
2023/03/25 01:10:20;;;;;;;;;4.00;1.00;;;;;11.59;100.00;100669.44;5033268;28;45453;-75
2023/03/25 01:12:45;;;;;;;;;1.00;1.00;;;;;11.59;100.00;100665.03;5038250;28;45580;-77
2023/03/25 01:15:11;;;;;;;;;1.00;0.67;;;;;11.63;100.00;100658.00;5036799;28;46521;-76
2023/03/25 01:17:36;;;;;;;;;0.33;0.00;;;;;11.64;100.00;100665.94;5037804;28;45513;-77
2023/03/25 01:20:04;;;;;;;;;1.33;0.00;;;;;11.63;100.00;100666.81;5035026;28;45384;-76
2023/03/25 01:22:30;;;;;;;;;1.00;0.00;;;;;11.64;100.00;100675.63;5037281;28;45460;-76
2023/03/25 01:24:56;;;;;;;;;4.33;0.00;;;;;11.64;100.00;100671.22;5030384;28;47638;-77
2023/03/25 01:27:23;;;;;;;;;1.67;0.00;;;;;11.64;100.00;100668.56;5037680;28;46568;-76
2023/03/25 01:29:48;;;;;;;;;0.00;0.00;;;;;11.65;100.00;100670.34;5036193;28;45344;-77
2023/03/25 01:32:14;;;;;;;;;2.00;0.00;;;;;11.67;100.00;100665.06;5037443;28;45484;-76
2023/03/25 01:34:41;;;;;;;;;0.67;0.67;;;;;11.68;100.00;100661.56;5036022;28;46445;-76
2023/03/25 01:37:08;;;;;;;;;3.67;1.00;;;;;11.70;100.00;100665.06;5036679;28;45502;-76
2023/03/25 01:39:34;;;;;;;;;1.33;1.00;;;;;11.72;100.00;100658.94;5036265;28;45490;-76
2023/03/25 01:41:59;;;;;;;;;2.00;0.00;;;;;11.71;100.00;100662.41;5037616;28;45704;-76
2023/03/25 01:44:26;;;;;;;;;3.00;1.00;;;;;11.71;100.00;100657.13;5037405;28;47725;-77
2023/03/25 01:46:52;;;;;;;;;0.00;0.00;;;;;11.71;100.00;100656.25;5036475;28;45327;-76
2023/03/25 01:49:23;;;;;;;;;1.67;1.67;;;;;11.73;100.00;100657.16;5036900;28;45469;-78
2023/03/25 01:51:53;;;;;;;;;0.00;0.00;;;;;11.72;100.00;100651.00;5033501;28;45419;-76
2023/03/25 01:54:18;;;;;;;;;3.67;1.00;;;;;11.73;100.00;100651.88;5013291;28;47432;-78
2023/03/25 01:56:46;;;;;;;;;0.00;0.00;;;;;11.75;100.00;100640.41;5033034;28;45257;-76
2023/03/25 01:59:13;;;;;;;;;3.67;1.00;;;;;11.75;100.00;100637.75;5026937;28;46579;-77
2023/03/25 02:01:39;;;;;;;;;2.67;0.67;;;;;11.78;100.00;100631.59;5012704;28;45546;-77
2023/03/25 02:04:11;;;;;;;;;1.33;0.00;;;;;11.79;100.00;100644.81;5017973;28;74168;-76
2023/03/25 02:06:44;;;;;;;;;0.00;0.00;;;;;11.77;100.00;100638.66;5020337;28;45506;-76
2023/03/25 02:09:12;;;;;;;;;1.67;0.00;;;;;11.75;100.00;100652.75;5012135;28;46562;-76
2023/03/25 02:11:38;;;;;;;;;2.00;0.00;;;;;11.74;100.00;100650.97;5034977;28;45391;-76
2023/03/25 02:14:07;;;;;;;;;0.00;0.00;;;;;11.75;100.00;100644.81;5032420;28;47423;-76
2023/03/25 02:16:45;;;;;;;;;0.67;0.00;;;;;11.73;100.00;100636.88;5014138;28;45455;-76
2023/03/25 02:19:34;;;;;;;;;4.33;1.00;;;;;11.73;100.00;100638.66;5028234;28;46150;-76
2023/03/25 02:22:36;;;;;;;;;0.33;0.33;;;;;11.73;100.00;100626.31;5032201;28;45518;-76
2023/03/25 02:25:10;;;;;;;;;2.00;1.00;;;;;11.72;100.00;100615.72;5031386;28;46736;-76
2023/03/25 02:27:40;;;;;;;;;2.33;1.00;;;;;11.73;100.00;100620.13;5034522;28;45536;-76
2023/03/25 02:30:17;;;;;;;;;3.33;1.00;;;;;11.73;100.00;100634.22;5017512;28;45518;-76
2023/03/25 02:33:24;;;;;;;;;0.00;0.00;;;;;11.76;100.00;100630.69;5018699;28;45289;-76
2023/03/25 02:36:04;;;;;;;;;1.67;0.00;;;;;11.77;100.00;100632.47;5032202;28;46549;-76
2023/03/25 02:38:42;;;;;;;;;2.67;0.00;;;;;11.76;100.00;100628.06;5030555;28;45470;-76
2023/03/25 02:41:15;;;;;;;;;2.67;2.00;;;;;11.75;100.00;100624.53;5029404;28;45730;-76
2023/03/25 02:43:54;;;;;;;;;0.67;0.33;;;;;11.74;100.00;100622.78;5029505;28;45414;-77
2023/03/25 02:46:21;;;;;;;;;1.00;1.00;;;;;11.72;100.00;100618.38;5014451;28;46605;-76
2023/03/25 02:49:09;;;;;;;;;0.00;0.00;;;;;11.75;100.00;100628.94;5017480;28;45558;-76
2023/03/25 02:51:48;;;;;;;;;3.00;0.00;;;;;11.74;100.00;100625.41;5021996;28;45392;-76
2023/03/25 02:54:15;;;;;;;;;3.00;1.00;;;;;11.74;100.00;100619.25;5031651;28;45503;-77
2023/03/25 02:56:43;;;;;;;;;0.67;0.67;;;;;11.75;100.00;100619.25;5011714;28;66421;-76
2023/03/25 02:59:13;;;;;;;;;3.00;0.00;;;;;11.75;100.00;100616.59;5009360;28;46065;-76
2023/03/25 03:01:38;;;;;;;;;1.00;1.00;;;;;11.77;100.00;100619.22;5011989;28;45368;-76
2023/03/25 03:04:04;;;;;;;;;0.00;0.00;;;;;11.77;100.00;100624.53;5014353;28;45330;-76
2023/03/25 03:06:30;;;;;;;;;2.33;0.33;;;;;11.77;100.00;100627.16;5030689;28;67572;-76
2023/03/25 03:09:03;;;;;;;;;2.67;1.00;;;;;11.78;100.00;100616.63;5016213;28;45318;-76
2023/03/25 03:11:47;;;;;;;;;0.00;0.00;;;;;11.79;100.00;100612.22;5016344;28;45499;-76
2023/03/25 03:14:33;;;;;;;;;3.00;1.00;;;;;11.79;100.00;100617.50;5034292;28;45467;-76
2023/03/25 03:17:20;;;;;;;;;1.00;0.00;;;;;11.76;100.00;100631.59;5013964;28;47788;-76
2023/03/25 03:20:16;;;;;;;;;2.00;0.67;;;;;11.76;100.00;100621.00;5014996;28;45517;-78
2023/03/25 03:22:51;;;;;;;;;2.00;0.00;;;;;11.77;100.00;100611.28;5030251;28;45582;-76
2023/03/25 03:25:30;;;;;;;;;2.00;0.33;;;;;11.77;100.00;100612.22;5013187;28;45720;-77
2023/03/25 03:28:09;;;;;;;;;1.33;0.00;;;;;11.79;100.00;100620.16;5030000;28;46722;-76
2023/03/25 03:30:45;;;;;;;;;2.00;0.00;;;;;11.80;100.00;100617.50;5026797;28;45249;-77
2023/03/25 03:33:24;;;;;;;;;1.00;0.00;;;;;11.82;100.00;100625.47;5015506;28;45406;-77
2023/03/25 03:36:00;;;;;;;;;2.67;1.00;;;;;11.80;100.00;100616.63;5014521;28;45306;-76
2023/03/25 03:38:31;;;;;;;;;2.00;0.33;;;;;11.80;100.00;100619.25;5027068;28;46767;-76
2023/03/25 03:41:00;;;;;;;;;0.00;0.00;;;;;11.80;100.00;100622.78;5015959;28;45483;-76
2023/03/25 03:43:47;;;;;;;;;1.33;0.00;;;;;11.80;100.00;100613.97;5018053;28;45626;-77
2023/03/25 03:46:27;;;;;;;;;2.67;1.00;;;;;11.78;100.00;100623.69;5017954;28;45394;-76
2023/03/25 03:48:57;;;;;;;;;2.00;0.00;;;;;11.77;100.00;100619.22;5014952;28;46736;-76
2023/03/25 03:51:31;;;;;;;;;2.00;0.00;;;;;11.76;100.00;100631.59;5030235;28;45339;-76
2023/03/25 03:53:59;;;;;;;;;5.00;2.00;;;;;11.76;100.00;100622.75;5034064;28;45349;-76
2023/03/25 03:56:37;;;;;;;;;4.33;0.00;;;;;11.78;100.00;100628.97;5036181;28;45367;-76
2023/03/25 03:59:22;;;;;;;;;0.00;0.00;;;;;11.78;100.00;100642.19;5016374;28;46586;-76
2023/03/25 04:01:54;;;;;;;;;1.00;0.00;;;;;11.77;100.00;100636.03;5011042;28;45494;-76
2023/03/25 04:04:22;;;;;;;;;3.33;1.00;;;;;11.79;100.00;100630.72;5012954;28;45381;-77
2023/03/25 04:06:55;;;;;;;;;2.00;0.00;;;;;11.79;100.00;100638.66;5014490;28;45626;-76
2023/03/25 04:09:39;;;;;;;;;1.00;0.00;;;;;11.83;100.00;100644.88;5033991;28;47372;-76
2023/03/25 04:12:10;;;;;;;;;2.00;0.00;;;;;11.86;100.00;100639.59;5015308;28;45391;-76
2023/03/25 04:14:36;;;;;;;;;0.00;0.00;;;;;11.84;100.00;100638.72;5015932;28;45443;-76
2023/03/25 04:17:04;;;;;;;;;0.00;0.00;;;;;11.94;100.00;100646.69;5018438;28;45399;-76
2023/03/25 04:19:32;;;;;;;;;0.67;0.00;;;;;11.99;100.00;100652.88;5031107;28;47347;-77
2023/03/25 04:21:58;;;;;;;;;1.00;0.00;;;;;12.04;100.00;100643.16;5030686;28;45496;-76
2023/03/25 04:24:25;;;;;;;;;1.67;0.00;;;;;12.03;100.00;100633.44;5034645;28;45560;-76
2023/03/25 04:26:51;;;;;;;;;0.00;0.00;;;;;12.06;100.00;100638.75;5037974;28;45251;-76
2023/03/25 04:29:17;;;;;;;;;0.00;0.00;;;;;12.05;100.00;100647.56;5031850;28;47661;-76
2023/03/25 04:31:48;;;;;;;;;4.00;0.00;;;;;12.08;100.00;100657.28;5033169;28;45301;-76
2023/03/25 04:34:13;;;;;;;;;0.33;0.00;;;;;12.06;100.00;100654.63;5036319;28;45295;-76
2023/03/25 04:36:41;;;;;;;;;3.00;0.00;;;;;12.07;100.00;100645.81;5037797;28;45226;-76
2023/03/25 04:39:08;;;;;;;;;0.00;0.00;;;;;12.07;100.00;100666.97;5034011;28;47230;-76
2023/03/25 04:41:33;;;;;;;;;0.00;0.00;;;;;12.09;100.00;100666.09;5034791;28;45308;-76
2023/03/25 04:43:58;;;;;;;;;0.33;0.33;;;;;12.07;100.00;100661.69;5038605;28;45549;-76
2023/03/25 04:46:24;;;;;;;;;1.00;0.00;;;;;12.12;100.00;100685.53;5037532;28;63418;-76
2023/03/25 04:48:52;;;;;;;;;0.00;0.00;;;;;12.13;100.00;100675.81;5036951;28;46574;-76
2023/03/25 04:51:18;;;;;;;;;0.67;0.00;;;;;12.14;100.00;100678.44;5035289;28;45515;-77
2023/03/25 04:53:43;;;;;;;;;0.00;0.00;;;;;12.13;100.00;100695.22;5037554;28;45391;-77
2023/03/25 04:56:15;;;;;;;;;2.00;0.00;;;;;12.14;100.00;100683.75;5036800;28;45295;-76
2023/03/25 04:58:44;;;;;;;;;4.33;0.00;;;;;12.17;100.00;100688.19;5041084;28;47572;-77
2023/03/25 05:01:29;;;;;;;;;0.00;0.00;;;;;12.15;100.00;100682.91;5013899;28;47223;-76
2023/03/25 05:04:03;;;;;;;;;0.00;0.00;;;;;12.16;100.00;100686.41;5018867;28;45476;-77
2023/03/25 05:06:29;;;;;;;;;2.00;1.00;;;;;12.17;100.00;100683.75;5032880;28;46541;-76
2023/03/25 05:08:54;;;;;;;;;0.00;0.00;;;;;12.15;100.00;100689.94;5038057;28;46706;-76
2023/03/25 05:11:19;;;;;;;;;0.00;0.00;;;;;12.17;100.00;100690.81;5029866;28;45594;-76
2023/03/25 05:13:45;;;;;;;;;3.67;0.00;;;;;12.15;100.00;100695.25;5036785;28;64432;-76
2023/03/25 05:16:10;;;;;;;;;2.33;0.00;;;;;12.15;100.00;100689.94;5036705;28;45460;-76
2023/03/25 05:18:36;;;;;;;;;1.00;0.00;;;;;12.13;100.00;100687.28;5029577;28;67230;-76
2023/03/25 05:21:01;;;;;;;;;3.00;0.00;;;;;12.13;100.00;100700.50;5033847;28;70932;-76
2023/03/25 05:23:27;;;;;;;;;0.00;0.00;;;;;12.12;100.00;100705.81;5029219;28;45284;-76
2023/03/25 05:25:52;;;;;;;;;1.00;0.00;;;;;12.12;100.00;100706.69;5036640;28;45605;-76
2023/03/25 05:28:18;;;;;;;;;0.00;0.00;;;;;12.15;100.00;100719.06;5028973;28;47418;-76
2023/03/25 05:30:46;;;;;;;;;2.33;0.00;;;;;12.15;100.00;100719.06;5035940;28;45243;-76
2023/03/25 05:33:14;;;;;;;;;1.00;0.00;;;;;12.10;100.00;100716.41;5033028;28;45576;-77
2023/03/25 05:35:40;;;;;;;;;1.00;0.00;;;;;12.08;100.00;100726.09;5038044;28;45575;-77
2023/03/25 05:38:11;;;;;;;;;3.00;0.00;;;;;12.04;100.00;100733.16;5029905;28;47006;-77
2023/03/25 05:40:38;;;;;;;;;0.00;0.00;;;;;12.07;100.00;100741.06;5037680;28;45369;-77
2023/03/25 05:43:05;;;;;;;;;0.00;0.00;;;;;12.10;100.00;100742.88;5037117;28;45327;-76
2023/03/25 05:45:31;;;;;;;;;3.67;0.00;;;;;12.12;100.00;100745.50;5033324;28;45653;-77
2023/03/25 05:47:58;;;;;;;;;0.00;0.00;;;;;12.15;100.00;100745.53;5035854;28;47037;-76
2023/03/25 05:50:23;;;;;;;;;0.00;0.00;;;;;12.14;100.00;100751.69;5036238;28;45217;-76
2023/03/25 05:52:50;;;;;;;;;0.00;0.00;;;;;12.13;100.00;100757.84;5040957;28;45434;-75
2023/03/25 05:55:18;;;;;;;;;1.33;0.00;;;;;12.10;100.00;100761.41;5034776;28;45386;-76
2023/03/25 05:57:43;;;;;;;;;0.00;0.00;;;;;12.07;100.00;100759.59;5029522;28;47568;-76
2023/03/25 06:00:10;;;;;;;;;0.00;0.00;;;;;12.08;100.00;100760.47;5036020;28;45590;-76
2023/03/25 06:02:41;;;;;;;;;1.67;0.00;;;;;12.04;100.00;100764.91;5033724;28;45474;-78
2023/03/25 06:05:08;;;;;;;;;1.00;0.00;;;;;12.01;100.00;100756.94;5036691;28;45503;-77
2023/03/25 06:07:38;;;;;;;;;4.00;0.00;;;;;11.99;100.00;100764.00;5030082;28;45387;-76
2023/03/25 06:10:04;;;;;;;;;1.00;0.00;;;;;11.96;100.00;100774.56;5030335;28;45789;-76
2023/03/25 06:12:31;;;;;;;;;0.00;0.00;;;;;11.95;100.00;100778.09;5027526;28;45293;-76
2023/03/25 06:14:57;;;;;;;;;0.00;0.00;;;;;11.93;100.00;100776.28;5034230;28;45509;-76
2023/03/25 06:17:22;;;;;;;;;0.00;0.00;;;;;11.89;100.00;100779.84;5036324;28;45452;-76
2023/03/25 06:19:49;;;;;;;;;1.00;0.00;;;;;11.90;100.00;100771.88;5035196;28;45335;-77
2023/03/25 06:22:14;;;;;;;;;0.00;0.00;;;;;11.87;100.00;100784.22;5033877;28;45324;-76
2023/03/25 06:24:41;;;;;;;;;2.00;0.67;;;;;11.82;100.00;100785.94;5033842;28;46454;-76
2023/03/25 06:27:16;;;;;;;;;1.00;0.00;;;;;11.79;100.00;100787.69;5036789;28;46303;-76
2023/03/25 06:29:42;;;;;;;;;0.67;0.00;;;;;11.75;100.00;100803.53;5035830;28;45330;-76
2023/03/25 06:32:09;;;;;;;;;0.00;0.00;;;;;11.71;100.00;100807.91;5028226;28;45470;-76
2023/03/25 06:34:35;;;;;;;;;1.33;0.00;;;;;11.70;100.00;100795.56;5017491;28;45707;-76
2023/03/25 06:37:00;;;;;;;;;1.00;1.00;;;;;11.68;100.00;100799.09;5035155;28;46658;-76
2023/03/25 06:39:30;;;;;;;;;0.33;0.00;;;;;11.68;100.00;100815.84;5032101;28;59534;-76
2023/03/25 06:41:56;;;;;;;;;0.67;0.00;;;;;11.66;100.00;100808.75;5030497;28;45296;-76
2023/03/25 06:44:21;;;;;;;;;0.00;0.00;;;;;11.66;100.00;100806.97;5034764;28;45523;-75
2023/03/25 06:46:46;;;;;;;;;2.00;0.00;;;;;11.65;100.00;100807.88;5034607;28;46259;-76
2023/03/25 06:49:12;;;;;;;;;1.00;0.00;;;;;11.65;100.00;100806.97;5039630;28;59503;-76
2023/03/25 06:51:37;;;;;;;;;2.00;0.00;;;;;11.66;100.00;100806.97;5031213;28;63560;-76
2023/03/25 06:54:02;;;;;;;;;0.67;0.00;;;;;11.69;100.00;100827.28;5030670;28;64066;-76
2023/03/25 06:56:28;;;;;;;;;0.00;0.00;;;;;11.70;100.00;100829.94;5035952;28;47268;-76
2023/03/25 06:58:53;;;;;;;;;0.00;0.00;;;;;11.71;100.00;100820.25;5028450;28;68483;-77
2023/03/25 07:01:18;;;;;;;;;0.33;0.00;;;;;11.70;100.00;100811.41;5032558;28;45382;-76
2023/03/25 07:03:44;;;;;;;;;0.33;0.00;;;;;11.72;100.00;100835.25;5030487;28;45357;-76
2023/03/25 07:06:15;;;;;;;;;2.00;2.00;;;;;11.71;100.00;100815.84;5036186;28;47323;-77
2023/03/25 07:08:40;;;;;;;;;1.00;0.00;;;;;11.72;100.00;100829.97;5028113;28;45537;-77
2023/03/25 07:11:06;;;;;;;;;2.00;0.00;;;;;11.74;100.00;100825.56;5033155;28;45533;-76
2023/03/25 07:13:32;;;;;;;;;2.00;0.00;;;;;11.80;100.00;100834.41;5029990;28;46300;-79
2023/03/25 07:15:58;;;;;;;;;0.00;0.00;;;;;11.85;100.00;100829.19;5035404;28;46617;-81
2023/03/25 07:18:23;;;;;;;;;1.00;0.00;;;;;11.89;100.00;100823.03;5016185;28;45441;-80
2023/03/25 07:20:49;;;;;;;;;0.67;0.00;;;;;11.93;100.00;100826.56;5034962;28;45481;-79
2023/03/25 07:23:14;;;;;;;;;1.67;1.00;;;;;11.91;100.00;100820.41;5034426;28;45408;-79
2023/03/25 07:25:40;;;;;;;;;0.67;0.00;;;;;11.93;100.00;100829.22;5029356;28;69823;-79
2023/03/25 07:28:05;;;;;;;;;0.00;0.00;;;;;11.96;100.00;100837.19;5035569;28;45467;-78
2023/03/25 07:30:31;;;;;;;;;2.00;0.00;;;;;12.05;100.00;100826.66;5035293;28;45432;-79
2023/03/25 07:32:56;;;;;;;;;1.33;0.00;;;;;12.18;100.00;100840.81;5035176;28;45935;-79
2023/03/25 07:35:21;;;;;;;;;0.33;0.00;;;;;12.24;100.00;100840.84;5033783;28;69066;-79
2023/03/25 07:37:47;;;;;;;;;3.00;0.00;;;;;12.23;100.00;100842.59;5028259;28;64782;-77
2023/03/25 07:40:12;;;;;;;;;1.00;0.00;;;;;12.27;100.00;100868.22;5032348;28;64904;-78
2023/03/25 07:42:37;;;;;;;;;2.00;0.00;;;;;12.31;100.00;100853.25;5030283;28;61698;-77
2023/03/25 07:45:04;;;;;;;;;1.00;1.00;;;;;12.36;100.00;100846.22;5034356;28;47031;-79
2023/03/25 07:47:30;;;;;;;;;1.00;0.00;;;;;12.40;100.00;100850.63;5031277;28;45735;-77
2023/03/25 07:49:55;;;;;;;;;0.00;0.00;;;;;12.52;100.00;100857.75;5035945;28;61436;-78
2023/03/25 07:52:20;;;;;;;;;5.00;0.67;;;;;12.61;100.00;100860.41;5032107;28;45378;-80
2023/03/25 07:54:46;;;;;;;;;2.00;0.00;;;;;12.58;100.00;100858.63;5033335;28;47312;-79
2023/03/25 07:57:12;;;;;;;;;2.00;0.00;;;;;12.54;100.00;100871.88;5030802;28;67879;-80
2023/03/25 07:59:37;;;;;;;;;3.00;0.00;;;;;12.53;100.00;100870.09;5033652;28;45593;-79
2023/03/25 08:02:02;;;;;;;;;2.33;0.00;;;;;12.57;100.00;100871.88;5033358;28;45533;-78
2023/03/25 08:04:28;;;;;;;;;0.00;0.00;;;;;12.57;100.00;100871.88;5030432;28;46460;-77
2023/03/25 08:06:53;;;;;;;;;0.00;0.00;;;;;12.64;100.00;100873.66;5030589;28;62233;-78
2023/03/25 08:09:18;;;;;;;;;0.00;0.00;;;;;12.69;100.00;100876.34;5021857;28;45479;-79
2023/03/25 08:11:44;;;;;;;;;3.00;0.00;;;;;12.70;100.00;100891.34;5032322;28;45776;-79
2023/03/25 08:14:10;;;;;;;;;2.00;0.00;;;;;12.66;100.00;100895.75;5036020;28;46921;-81
2023/03/25 08:16:35;;;;;;;;;4.00;0.00;;;;;12.65;100.00;100879.84;5032654;28;45528;-80
2023/03/25 08:19:01;;;;;;;;;1.00;0.00;;;;;12.71;100.00;100882.50;5027124;28;45403;-82
2023/03/25 08:21:26;;;;;;;;;1.67;1.00;;;;;12.79;100.00;100896.69;5034452;28;45383;-80
2023/03/25 08:23:57;;;;;;;;;2.00;1.00;;;;;12.86;100.00;100901.09;4997651;28;47746;-87
2023/03/25 08:26:32;;;;;;;;;1.00;0.00;;;;;12.94;100.00;100891.41;5017230;28;46452;-83
2023/03/25 08:28:58;;;;;;;;;2.00;0.00;;;;;13.09;100.00;100902.03;5015927;28;45302;-78
2023/03/25 08:31:25;;;;;;;;;4.33;0.00;;;;;13.18;100.00;100901.16;5029176;28;45538;-79
2023/03/25 08:33:50;;;;;;;;;0.00;0.00;;;;;13.23;100.00;100912.69;5034716;28;46577;-81
2023/03/25 08:36:18;;;;;;;;;0.00;0.00;;;;;13.30;100.00;100901.22;5016163;28;60397;-78
2023/03/25 08:38:45;;;;;;;;;1.00;0.00;;;;;13.34;100.00;100910.06;5012131;28;45291;-78
2023/03/25 08:41:10;;;;;;;;;0.00;0.00;;;;;13.39;100.00;100910.94;5016895;28;45480;-83
2023/03/25 08:43:35;;;;;;;;;0.67;0.00;;;;;13.40;100.00;100885.31;5015023;28;68062;-83
2023/03/25 08:46:00;;;;;;;;;0.33;0.00;;;;;13.41;100.00;100903.00;5014745;28;45359;-84
2023/03/25 08:48:26;;;;;;;;;1.67;0.00;;;;;13.42;100.00;100891.50;5025579;28;63647;-85
2023/03/25 08:50:52;;;;;;;;;0.67;0.00;;;;;13.36;100.00;100895.91;5030587;28;48616;-78
2023/03/25 08:53:17;;;;;;;;;0.00;0.00;;;;;13.32;100.00;100893.28;5028970;28;45509;-77
2023/03/25 08:55:42;;;;;;;;;0.00;0.00;;;;;13.24;100.00;100893.25;5031193;28;49809;-81
2023/03/25 08:58:08;;;;;;;;;2.67;1.00;;;;;13.27;100.00;100903.00;5031159;28;45426;-78
2023/03/25 09:00:36;;;;;;;;;0.00;0.00;;;;;13.31;100.00;100894.13;5031998;28;45777;-77
2023/03/25 09:03:02;;;;;;;;;3.00;0.00;;;;;13.31;100.00;100892.38;5031024;28;46534;-79
2023/03/25 09:05:28;;;;;;;;;5.33;0.00;;;;;13.32;100.00;100896.81;5031991;28;46508;-78
2023/03/25 09:07:53;;;;;;;;;2.33;0.00;;;;;13.32;100.00;100896.81;5030163;28;45403;-76
2023/03/25 09:10:18;;;;;;;;;1.00;0.00;;;;;13.31;100.00;100895.00;5015547;28;59121;-77
2023/03/25 09:12:44;;;;;;;;;0.00;0.00;;;;;13.33;100.00;100897.69;5027198;28;47201;-77
2023/03/25 09:15:11;;;;;;;;;1.67;0.00;;;;;13.39;100.00;100896.81;5035378;28;45438;-79
2023/03/25 09:17:36;;;;;;;;;0.00;0.00;;;;;13.41;100.00;100892.38;5033426;28;45440;-79
2023/03/25 09:20:02;;;;;;;;;1.67;0.00;;;;;13.44;100.00;100898.59;5034129;28;45513;-76
2023/03/25 09:22:28;;;;;;;;;0.33;0.33;;;;;13.46;100.00;100895.91;5035680;28;47477;-78
2023/03/25 09:24:53;;;;;;;;;1.33;0.00;;;;;13.49;100.00;100907.44;5035015;28;62098;-78
2023/03/25 09:27:18;;;;;;;;;1.00;0.00;;;;;13.55;100.00;100911.84;5032929;28;62997;-79
2023/03/25 09:29:44;;;;;;;;;1.67;0.00;;;;;13.66;100.00;100909.19;5019958;28;58329;-78
2023/03/25 09:32:09;;;;;;;;;2.00;0.00;;;;;13.70;100.00;100914.50;5033313;28;45552;-78
2023/03/25 09:34:34;;;;;;;;;0.00;0.00;;;;;13.76;100.00;100910.97;5034869;28;48785;-77
2023/03/25 09:37:02;;;;;;;;;0.67;0.00;;;;;13.91;100.00;100929.53;5031471;28;45385;-78
2023/03/25 09:39:27;;;;;;;;;0.67;0.67;;;;;14.05;100.00;100927.72;5028716;28;45514;-78
2023/03/25 09:42:23;;;;;;;;;1.00;0.00;;;;;14.16;100.00;100940.97;5034062;28;45748;-79
2023/03/25 09:44:55;;;;;;;;;2.33;0.00;;;;;14.25;100.00;100930.34;5037104;28;45462;-80
2023/03/25 09:47:23;;;;;;;;;0.00;0.00;;;;;14.35;100.00;100940.06;5031445;28;45465;-79
2023/03/25 09:49:53;;;;;;;;;1.00;1.00;;;;;14.42;100.00;100940.91;5016671;28;45578;-79
2023/03/25 09:52:25;;;;;;;;;3.00;0.00;;;;;14.41;100.00;100949.78;5018877;28;46583;-78
2023/03/25 09:54:54;;;;;;;;;1.33;0.00;;;;;14.41;100.00;100957.75;5016983;28;45534;-77
2023/03/25 09:57:23;;;;;;;;;0.00;0.00;;;;;14.40;100.00;100946.25;5018600;28;45512;-81
2023/03/25 09:59:50;;;;;;;;;0.00;0.00;;;;;14.42;100.00;100954.19;5015641;28;45361;-79
2023/03/25 10:02:41;;;;;;;;;1.00;0.00;;;;;14.45;100.00;100961.28;5036112;28;45803;-77
2023/03/25 10:05:41;;;;;;;;;1.00;1.00;;;;;14.47;100.00;100967.47;5019031;28;45604;-78
2023/03/25 10:08:09;;;;;;;;;1.67;0.00;;;;;14.49;100.00;100968.38;5035769;28;45695;-77
2023/03/25 10:10:53;;;;;;;;;1.00;0.00;;;;;14.56;100.00;100963.06;5031337;28;45707;-77
2023/03/25 10:13:34;;;;;;;;;1.33;0.00;;;;;14.68;100.00;100975.41;5013162;28;46435;-77
2023/03/25 10:16:28;;;;;;;;;2.00;0.00;;;;;14.80;100.00;100958.53;5032133;28;45514;-79
2023/03/25 10:19:31;;;;;;;;;1.00;0.00;;;;;14.77;100.00;100951.47;5015043;28;45491;-77
2023/03/25 10:22:15;;;;;;;;;2.00;0.00;;;;;14.68;100.00;100984.25;5028049;28;45620;-77
2023/03/25 10:24:55;;;;;;;;;0.00;0.00;;;;;14.59;100.00;100940.88;5034082;28;45585;-79
2023/03/25 10:27:37;;;;;;;;;0.67;0.00;;;;;14.57;100.00;100948.88;5011970;28;45293;-81
2023/03/25 10:30:33;;;;;;;;;0.00;0.00;;;;;14.62;100.00;100956.81;5029384;28;45143;-77
2023/03/25 10:33:03;;;;;;;;;0.00;0.00;;;;;14.76;100.00;100955.00;4994395;28;45649;-78
2023/03/25 10:35:36;;;;;;;;;1.33;0.00;;;;;14.89;100.00;100954.06;5017669;28;47531;-77
2023/03/25 10:38:12;;;;;;;;;3.67;0.00;;;;;15.06;100.00;100953.97;5014358;28;45515;-80
2023/03/25 10:40:51;;;;;;;;;0.00;0.00;;;;;15.22;100.00;100960.06;5019188;28;45898;-77
2023/03/25 10:43:17;;;;;;;;;0.00;0.00;;;;;15.37;100.00;100959.09;5016493;28;45417;-78
2023/03/25 10:45:44;;;;;;;;;0.33;0.00;;;;;15.46;100.00;100959.94;5030936;28;45533;-79
2023/03/25 10:48:30;;;;;;;;;0.00;0.00;;;;;15.60;100.00;100996.19;5022093;28;45598;-77
2023/03/25 10:51:12;;;;;;;;;3.00;0.00;;;;;15.66;100.00;100953.63;5012881;28;45333;-77
2023/03/25 10:53:40;;;;;;;;;0.00;0.00;;;;;15.67;100.00;100966.91;5017344;28;45540;-77
2023/03/25 10:56:12;;;;;;;;;0.00;0.00;;;;;15.66;100.00;100962.47;5009502;28;47434;-78
2023/03/25 10:58:39;;;;;;;;;2.00;1.00;;;;;15.64;100.00;100958.94;5016744;28;45531;-77
2023/03/25 11:01:16;;;;;;;;;1.00;0.00;;;;;15.65;100.00;100950.03;5036997;28;45524;-77
2023/03/25 11:03:42;;;;;;;;;0.67;0.00;;;;;15.70;100.00;100953.56;5033224;28;45296;-81
2023/03/25 11:06:23;;;;;;;;;1.00;0.00;;;;;15.77;100.00;100956.19;5011408;28;47567;-79
2023/03/25 11:09:14;;;;;;;;;1.33;0.00;;;;;15.79;100.00;100957.94;5001460;28;45448;-79
2023/03/25 11:11:41;;;;;;;;;0.00;0.00;;;;;15.87;100.00;100958.75;5025036;28;45382;-79
2023/03/25 11:14:07;;;;;;;;;2.67;0.00;;;;;15.92;100.00;100958.69;5029956;28;45323;-77
2023/03/25 11:16:35;;;;;;;;;0.00;0.00;;;;;15.91;100.00;100959.59;5030095;28;46541;-78
2023/03/25 11:19:02;;;;;;;;;4.00;0.00;;;;;15.92;100.00;100970.22;5034667;28;45576;-77
2023/03/25 11:21:35;;;;;;;;;3.00;0.00;;;;;16.02;100.00;100959.50;5031624;28;45508;-78
2023/03/25 11:24:01;;;;;;;;;1.00;0.33;;;;;16.09;100.00;100969.22;5012351;28;45486;-78
2023/03/25 11:26:32;;;;;;;;;1.67;0.00;;;;;16.18;100.00;100983.31;5017201;28;46968;-78
2023/03/25 11:29:06;;;;;;;;;0.33;0.33;;;;;16.29;100.00;100959.22;5006716;28;45444;-78